createdAt,value
2018-07-11T00:01:22.831Z,81.80
2018-07-11T00:03:54.126Z,82.50
2018-07-11T00:06:25.772Z,82.10
2018-07-11T00:08:56.123Z,82.00
2018-07-11T00:11:26.207Z,82.30
2018-07-11T00:13:56.314Z,82.50
2018-07-11T00:16:26.713Z,82.90
2018-07-11T00:18:56.782Z,83.00
2018-07-11T00:21:27.074Z,82.70
2018-07-11T00:23:57.392Z,82.50
2018-07-11T00:26:32.377Z,82.50
2018-07-11T00:29:02.793Z,82.40
2018-07-11T00:31:33.618Z,82.20
2018-07-11T00:34:04.117Z,81.60
2018-07-11T00:36:35.009Z,82.10
2018-07-11T00:39:06.967Z,82.60
2018-07-11T00:41:37.396Z,82.60
2018-07-11T00:44:07.776Z,82.80
2018-07-11T00:46:38.450Z,82.90
2018-07-11T00:49:09.003Z,83.40
2018-07-11T00:51:39.433Z,83.70
2018-07-11T00:54:09.963Z,83.70
2018-07-11T00:56:41.531Z,83.60
2018-07-11T00:59:26.813Z,82.70
2018-07-11T01:02:03.026Z,81.80
2018-07-11T01:04:33.696Z,81.60
2018-07-11T01:07:06.180Z,81.40
2018-07-11T01:09:48.728Z,81.40
2018-07-11T01:12:20.099Z,81.30
2018-07-11T01:17:25.758Z,81.80
2018-07-11T01:19:56.897Z,81.80
2018-07-11T01:22:27.301Z,82.60
2018-07-11T01:25:13.849Z,82.90
2018-07-11T01:27:44.251Z,82.70
2018-07-11T01:30:14.683Z,82.60
2018-07-11T01:32:45.288Z,82.90
2018-07-11T01:35:15.768Z,83.30
2018-07-11T01:40:16.387Z,83.80
2018-07-11T01:42:46.741Z,84.40
2018-07-11T01:45:17.279Z,85.40
2018-07-11T01:47:48.278Z,85.60
2018-07-11T01:50:19.584Z,85.80
2018-07-11T01:52:59.918Z,86.20
2018-07-11T01:55:30.330Z,86.50
2018-07-11T01:58:01.651Z,87.10
2018-07-11T02:00:32.212Z,87.30
2018-07-11T02:03:03.132Z,87.90
2018-07-11T02:05:33.651Z,88.40
2018-07-11T02:08:04.432Z,88.50
2018-07-11T02:10:34.844Z,88.80
2018-07-11T02:13:05.555Z,88.40
2018-07-11T02:15:36.268Z,88.50
2018-07-11T02:18:06.911Z,88.50
2018-07-11T02:20:37.407Z,88.40
2018-07-11T02:23:08.111Z,88.50
2018-07-11T02:25:39.161Z,89.00
2018-07-11T02:28:10.090Z,88.80
2018-07-11T02:30:41.623Z,88.60
2018-07-11T02:33:12.493Z,88.70
2018-07-11T02:35:43.213Z,89.30
2018-07-11T02:38:14.136Z,89.30
2018-07-11T02:40:44.692Z,89.50
2018-07-11T02:43:15.550Z,89.30
2018-07-11T02:45:46.257Z,89.20
2018-07-11T02:48:17.177Z,89.30
2018-07-11T02:50:48.192Z,89.80
2018-07-11T02:53:23.656Z,89.20
2018-07-11T02:55:54.724Z,89.30
2018-07-11T02:58:25.299Z,89.20
2018-07-11T03:00:56.056Z,89.40
2018-07-11T03:03:26.891Z,89.80
2018-07-11T03:05:57.760Z,90.00
2018-07-11T03:08:38.103Z,90.10
2018-07-11T03:11:08.767Z,90.20
2018-07-11T03:13:39.351Z,90.40
2018-07-11T03:19:27.984Z,90.50
2018-07-11T03:21:58.435Z,90.60
2018-07-11T03:24:28.868Z,90.80
2018-07-11T03:26:59.718Z,91.10
2018-07-11T03:29:30.211Z,91.30
2018-07-11T03:32:01.341Z,91.20
2018-07-11T03:34:32.275Z,91.40
2018-07-11T03:37:03.028Z,91.70
2018-07-11T03:39:33.836Z,91.90
2018-07-11T03:42:04.916Z,92.10
2018-07-11T03:44:35.468Z,92.30
2018-07-11T03:47:06.380Z,92.50
2018-07-11T03:49:36.999Z,92.60
2018-07-11T03:52:07.988Z,92.60
2018-07-11T03:54:38.536Z,92.70
2018-07-11T03:57:09.091Z,92.60
2018-07-11T03:59:39.916Z,92.80
2018-07-11T04:02:10.912Z,93.20
2018-07-11T04:04:41.975Z,93.30
2018-07-11T04:07:12.917Z,93.50
2018-07-11T04:09:44.279Z,93.60
2018-07-11T04:12:15.244Z,93.80
2018-07-11T04:14:46.281Z,94.20
2018-07-11T04:17:17.972Z,94.30
2018-07-11T04:19:49.000Z,94.10
2018-07-11T04:22:20.014Z,94.10
2018-07-11T04:24:50.703Z,93.90
2018-07-11T04:27:21.727Z,93.70
2018-07-11T04:29:52.743Z,94.10
2018-07-11T04:32:24.067Z,94.30
2018-07-11T04:34:54.731Z,94.40
2018-07-11T04:37:25.790Z,94.80
2018-07-11T04:39:57.111Z,94.70
2018-07-11T04:42:28.180Z,95.00
2018-07-11T04:44:59.141Z,95.10
2018-07-11T04:47:30.232Z,95.10
2018-07-11T04:50:01.096Z,94.80
2018-07-11T04:52:32.194Z,94.80
2018-07-11T04:55:03.179Z,95.00
2018-07-11T04:57:34.207Z,94.90
2018-07-11T05:00:04.899Z,94.90
2018-07-11T05:02:35.844Z,95.10
2018-07-11T05:05:07.235Z,95.30
2018-07-11T05:07:37.928Z,95.20
2018-07-11T05:10:08.869Z,95.40
2018-07-11T05:12:39.946Z,95.40
2018-07-11T05:15:10.949Z,95.30
2018-07-11T05:17:42.000Z,94.50
2018-07-11T05:20:16.295Z,94.60
2018-07-11T05:22:47.296Z,94.80
2018-07-11T05:25:18.317Z,94.00
2018-07-11T05:28:17.935Z,94.10
2018-07-11T05:30:49.296Z,93.70
2018-07-11T05:33:20.290Z,93.30
2018-07-11T05:35:51.360Z,93.20
2018-07-11T05:38:21.765Z,93.20
2018-07-11T05:40:52.397Z,93.50
2018-07-11T05:43:23.073Z,93.70
2018-07-11T05:45:53.512Z,93.40
2018-07-11T05:48:24.859Z,93.90
2018-07-11T05:50:55.256Z,93.80
2018-07-11T05:53:42.525Z,94.20
2018-07-11T05:56:12.957Z,93.50
2018-07-11T05:58:43.628Z,94.00
2018-07-11T06:01:14.134Z,93.70
2018-07-11T06:03:44.716Z,93.20
2018-07-11T06:09:17.952Z,92.10
2018-07-11T06:11:48.423Z,91.90
2018-07-11T06:14:19.972Z,91.20
2018-07-11T06:16:50.495Z,90.60
2018-07-11T06:19:20.963Z,90.10
2018-07-11T06:21:51.943Z,89.50
2018-07-11T06:24:22.471Z,89.70
2018-07-11T06:26:52.855Z,90.00
2018-07-11T06:29:23.391Z,90.20
2018-07-11T06:31:53.803Z,89.20
2018-07-11T06:34:24.207Z,89.10
2018-07-11T06:36:55.248Z,89.80
2018-07-11T06:39:26.322Z,89.30
2018-07-11T06:41:57.675Z,90.20
2018-07-11T06:44:28.733Z,90.50
2018-07-11T06:47:03.705Z,90.30
2018-07-11T06:49:34.432Z,91.00
2018-07-11T06:52:05.459Z,90.60
2018-07-11T06:54:36.392Z,89.20
2018-07-11T06:57:07.433Z,90.20
2018-07-11T06:59:38.291Z,90.50
2018-07-11T07:02:08.522Z,90.50
2018-07-11T07:04:39.249Z,90.90
2018-07-11T07:07:09.675Z,90.30
2018-07-11T07:12:12.194Z,89.10
2018-07-11T07:14:42.540Z,88.80
2018-07-11T07:17:12.808Z,90.70
2018-07-11T07:19:43.355Z,84.80
2018-07-11T07:22:13.951Z,83.10
2018-07-11T07:24:44.504Z,83.40
2018-07-11T07:27:14.882Z,80.60
2018-07-11T07:29:45.324Z,77.60
2018-07-11T07:32:15.444Z,79.00
2018-07-11T07:34:45.818Z,77.10
2018-07-11T07:37:16.380Z,77.10
2018-07-11T07:39:46.892Z,78.80
2018-07-11T07:42:17.443Z,79.00
2018-07-11T07:44:47.811Z,80.50
2018-07-11T07:47:23.563Z,77.20
2018-07-11T07:49:53.830Z,77.20
2018-07-11T07:52:24.303Z,74.30
2018-07-11T07:54:54.787Z,73.50
2018-07-11T07:59:55.732Z,70.20
2018-07-11T08:02:26.382Z,68.70
2018-07-11T08:04:57.623Z,70.90
2018-07-11T08:07:28.080Z,70.90
2018-07-11T08:09:58.524Z,70.30
2018-07-11T08:12:29.162Z,74.50
2018-07-11T08:14:59.589Z,75.00
2018-07-11T08:17:29.940Z,73.40
2018-07-11T08:20:00.364Z,72.30
2018-07-11T08:23:45.739Z,73.80
2018-07-11T08:26:32.711Z,74.30
2018-07-11T08:31:21.180Z,73.80
2018-07-11T08:34:45.931Z,72.40
2018-07-11T08:39:51.389Z,70.00
2018-07-11T08:44:08.536Z,70.70
2018-07-11T08:46:52.502Z,67.90
2018-07-11T08:52:16.958Z,65.40
2018-07-11T08:55:24.848Z,65.80
2018-07-11T09:00:20.191Z,64.30
2018-07-11T09:06:13.227Z,63.90
2018-07-11T09:11:44.316Z,63.30
2018-07-11T09:15:00.000Z,64.50
2018-07-11T09:19:49.745Z,59.90
2018-07-11T09:23:59.382Z,60.40
2018-07-11T09:26:29.432Z,56.70
2018-07-11T09:28:59.338Z,54.00
2018-07-11T09:31:29.418Z,54.20
2018-07-11T09:33:59.587Z,53.10
2018-07-11T09:36:29.614Z,51.20
2018-07-11T09:38:59.867Z,50.50
2018-07-11T09:41:30.143Z,50.20
2018-07-11T09:44:00.424Z,49.20
2018-07-11T09:46:30.682Z,45.60
2018-07-11T09:49:00.897Z,45.80
2018-07-11T09:51:30.977Z,50.80
2018-07-11T09:54:01.298Z,50.50
2018-07-11T09:56:49.034Z,48.80
2018-07-11T09:59:20.100Z,47.30
2018-07-11T10:01:50.394Z,43.60
2018-07-11T10:04:20.574Z,43.50
2018-07-11T10:06:50.740Z,44.30
2018-07-11T10:09:21.023Z,41.20
2018-07-11T10:11:51.040Z,38.70
2018-07-11T10:14:21.697Z,37.50
2018-07-11T10:16:52.054Z,39.90
2018-07-11T10:19:22.199Z,45.00
2018-07-11T10:21:52.586Z,48.80
2018-07-11T10:24:22.797Z,51.30
2018-07-11T10:26:53.117Z,53.40
2018-07-11T10:29:23.237Z,54.20
2018-07-11T10:31:53.658Z,55.40
2018-07-11T10:34:23.903Z,56.00
2018-07-11T10:36:54.213Z,58.00
2018-07-11T10:39:24.315Z,59.10
2018-07-11T10:41:54.454Z,60.10
2018-07-11T10:44:24.823Z,60.20
2018-07-11T10:47:00.899Z,59.70
2018-07-11T10:49:31.050Z,59.80
2018-07-11T10:52:01.172Z,59.60
2018-07-11T10:54:31.290Z,59.50
2018-07-11T10:57:01.447Z,58.90
2018-07-11T10:59:31.596Z,58.40
2018-07-11T11:02:01.764Z,57.10
2018-07-11T11:04:32.208Z,55.60
2018-07-11T11:07:02.330Z,56.00
2018-07-11T11:09:32.451Z,54.80
2018-07-11T11:12:02.589Z,55.60
2018-07-11T11:14:34.583Z,53.10
2018-07-11T11:17:04.877Z,52.80
2018-07-11T11:19:35.164Z,52.70
2018-07-11T11:22:05.616Z,53.50
2018-07-11T11:24:35.838Z,52.50
2018-07-11T11:27:06.204Z,53.40
2018-07-11T11:29:36.612Z,53.30
2018-07-11T11:32:07.455Z,52.40
2018-07-11T11:34:37.994Z,53.10
2018-07-11T11:37:08.524Z,50.90
2018-07-11T11:39:39.091Z,49.40
2018-07-11T11:42:09.786Z,49.60
2018-07-11T11:44:40.064Z,50.00
2018-07-11T11:47:10.624Z,50.90
2018-07-11T11:49:41.104Z,48.30
2018-07-11T11:52:11.688Z,50.20
2018-07-11T11:54:42.028Z,49.00
2018-07-11T11:57:12.469Z,49.30
2018-07-11T11:59:43.066Z,49.90
2018-07-11T12:02:13.428Z,48.70
2018-07-11T12:04:57.554Z,50.70
2018-07-11T12:07:28.941Z,47.70
2018-07-11T12:09:59.374Z,45.70
2018-07-11T12:12:29.736Z,46.40
2018-07-11T12:15:00.424Z,47.00
2018-07-11T12:17:30.942Z,48.40
2018-07-11T12:20:01.409Z,47.60
2018-07-11T12:22:31.786Z,48.50
2018-07-11T12:25:02.293Z,47.90
2018-07-11T12:27:32.801Z,49.00
2018-07-11T12:30:03.053Z,45.50
2018-07-11T12:32:34.436Z,41.90
2018-07-11T12:35:05.047Z,41.90
2018-07-11T12:37:35.572Z,44.40
2018-07-11T12:40:06.208Z,46.20
2018-07-11T12:42:37.003Z,47.60
2018-07-11T12:45:07.508Z,49.90
2018-07-11T12:47:43.070Z,50.80
2018-07-11T12:50:13.450Z,49.80
2018-07-11T12:52:43.902Z,49.30
2018-07-11T12:55:14.256Z,48.80
2018-07-11T12:57:44.706Z,46.70
2018-07-11T13:00:15.137Z,46.80
2018-07-11T13:02:46.367Z,48.00
2018-07-11T13:05:16.956Z,46.40
2018-07-11T13:07:47.354Z,46.20
2018-07-11T13:10:17.861Z,46.20
2018-07-11T13:12:49.143Z,44.00
2018-07-11T13:15:20.132Z,44.30
2018-07-11T13:17:50.774Z,43.90
2018-07-11T13:20:21.340Z,44.60
2018-07-11T13:22:52.178Z,43.60
2018-07-11T13:25:23.183Z,42.90
2018-07-11T13:27:54.408Z,42.80
2018-07-11T13:32:55.487Z,40.80
2018-07-11T13:35:26.059Z,43.00
2018-07-11T13:40:26.927Z,42.50
2018-07-11T13:42:57.370Z,40.90
2018-07-11T13:45:27.744Z,40.40
2018-07-11T13:48:01.977Z,38.40
2018-07-11T13:50:33.674Z,36.40
2018-07-11T13:53:04.259Z,35.40
2018-07-11T13:55:34.653Z,36.50
2018-07-11T13:58:05.355Z,39.10
2018-07-11T14:00:36.896Z,39.50
2018-07-11T14:03:08.881Z,41.40
2018-07-11T14:05:39.542Z,43.90
2018-07-11T14:08:09.973Z,43.20
2018-07-11T14:13:10.487Z,39.70
2018-07-11T14:15:41.137Z,40.20
2018-07-11T14:18:11.860Z,41.10
2018-07-11T14:20:42.311Z,39.30
2018-07-11T14:23:12.799Z,38.10
2018-07-11T14:25:43.307Z,37.70
2018-07-11T14:28:13.631Z,38.00
2018-07-11T14:30:44.006Z,37.50
2018-07-11T14:33:14.730Z,37.60
2018-07-11T14:35:45.799Z,36.00
2018-07-11T14:38:16.395Z,35.80
2018-07-11T14:40:50.179Z,36.50
2018-07-11T14:43:21.063Z,36.30
2018-07-11T14:45:59.759Z,36.50
2018-07-11T14:48:31.255Z,36.40
2018-07-11T14:51:02.159Z,36.80
2018-07-11T14:53:32.708Z,34.40
2018-07-11T14:56:03.030Z,33.60
2018-07-11T14:58:33.386Z,34.50
2018-07-11T15:01:03.696Z,34.50
2018-07-11T15:03:33.838Z,36.70
2018-07-11T15:06:04.159Z,37.20
2018-07-11T15:08:34.617Z,38.70
2018-07-11T15:11:07.128Z,35.40
2018-07-11T15:16:07.311Z,34.70
2018-07-11T15:18:52.112Z,32.30
2018-07-11T15:24:29.496Z,34.00
2018-07-11T15:27:00.030Z,33.90
2018-07-11T15:29:36.274Z,33.30
2018-07-11T15:32:07.749Z,32.60
2018-07-11T15:34:40.651Z,31.80
2018-07-11T15:37:19.167Z,29.50
2018-07-11T15:39:49.600Z,30.40
2018-07-11T15:42:20.199Z,33.00
2018-07-11T15:44:55.691Z,34.60
2018-07-11T15:47:26.618Z,35.70
2018-07-11T15:50:13.529Z,35.30
2018-07-11T15:52:44.085Z,35.30
2018-07-11T15:55:25.842Z,37.00
2018-07-11T15:57:59.330Z,36.80
2018-07-11T16:00:38.796Z,35.70
2018-07-11T16:03:10.770Z,35.90
2018-07-11T16:05:43.545Z,36.30
2018-07-11T16:08:18.808Z,36.40
2018-07-11T16:10:52.618Z,36.60
2018-07-11T16:13:23.162Z,34.90
2018-07-11T16:18:56.416Z,34.20
2018-07-11T16:21:46.531Z,35.70
2018-07-11T16:24:17.114Z,36.20
2018-07-11T16:26:47.619Z,35.90
2018-07-11T16:29:30.299Z,36.40
2018-07-11T16:32:00.870Z,35.70
2018-07-11T16:34:31.355Z,35.60
2018-07-11T16:37:03.358Z,35.60
2018-07-11T16:39:33.912Z,38.50
2018-07-11T16:42:06.543Z,37.00
2018-07-11T16:44:37.180Z,39.20
2018-07-11T16:47:08.413Z,39.50
2018-07-11T16:49:42.007Z,40.20
2018-07-11T16:52:12.347Z,39.40
2018-07-11T16:54:43.877Z,39.10
2018-07-11T16:57:22.598Z,40.70
2018-07-11T17:00:09.683Z,40.40
2018-07-11T17:02:42.641Z,40.80
2018-07-11T17:05:16.542Z,40.90
2018-07-11T17:07:58.074Z,41.90
2018-07-11T17:10:31.028Z,41.80
2018-07-11T17:13:17.544Z,41.40
2018-07-11T17:15:49.894Z,42.50
2018-07-11T17:19:36.916Z,41.30
2018-07-11T17:22:08.914Z,40.00
2018-07-11T17:24:48.343Z,41.40
2018-07-11T17:29:53.896Z,42.90
2018-07-11T17:32:24.545Z,43.60
2018-07-11T17:34:54.999Z,43.30
2018-07-11T17:37:35.080Z,44.40
2018-07-11T17:40:10.922Z,44.70
2018-07-11T17:42:45.021Z,44.50
2018-07-11T17:45:17.698Z,43.60
2018-07-11T17:48:11.822Z,45.40
2018-07-11T17:50:42.410Z,46.90
2018-07-11T17:53:23.453Z,47.80
2018-07-11T17:56:08.220Z,48.00
2018-07-11T17:59:00.044Z,48.80
2018-07-11T18:01:40.878Z,49.30
2018-07-11T18:05:26.331Z,50.40
2018-07-11T18:08:00.921Z,50.70
2018-07-11T18:10:48.015Z,51.10
2018-07-11T18:13:34.946Z,51.20
2018-07-11T18:17:20.926Z,50.20
2018-07-11T18:22:25.891Z,50.90
2018-07-11T18:25:12.915Z,50.20
2018-07-11T18:30:02.187Z,51.30
2018-07-11T18:36:03.431Z,51.90
2018-07-11T18:39:53.988Z,51.40
2018-07-11T18:42:49.874Z,52.20
2018-07-11T18:49:43.163Z,52.90
2018-07-11T18:52:33.695Z,55.30
2018-07-11T18:56:37.631Z,59.50
2018-07-11T19:00:12.151Z,60.70
2018-07-11T19:03:22.582Z,60.40
2018-07-11T19:08:54.587Z,61.90
2018-07-11T19:11:27.280Z,62.70
2018-07-11T19:14:07.836Z,63.80
2018-07-11T19:19:27.760Z,65.70
2018-07-11T19:22:04.986Z,67.10
2018-07-11T19:25:01.049Z,69.60
2018-07-11T19:28:18.696Z,70.60
2018-07-11T19:31:02.579Z,71.90
2018-07-11T19:35:56.411Z,72.70
2018-07-11T19:38:38.911Z,73.10
2018-07-11T19:41:19.539Z,73.70
2018-07-11T19:46:06.914Z,74.00
2018-07-11T19:49:54.152Z,74.70
2018-07-11T19:52:43.086Z,74.20
2018-07-11T19:56:34.276Z,71.90
2018-07-11T19:59:28.777Z,72.00
2018-07-11T20:01:59.695Z,71.30
2018-07-11T20:04:30.418Z,71.90
2018-07-11T20:07:01.048Z,71.10
2018-07-11T20:09:31.726Z,71.30
2018-07-11T20:12:05.725Z,71.40
2018-07-11T20:14:36.531Z,71.60
2018-07-11T20:17:06.887Z,71.80
2018-07-11T20:19:37.503Z,71.90
2018-07-11T20:22:08.180Z,72.10
2018-07-11T20:24:38.919Z,72.40
2018-07-11T20:27:09.328Z,73.20
2018-07-11T20:29:39.981Z,74.00
2018-07-11T20:32:10.490Z,75.20
2018-07-11T20:34:41.054Z,76.60
2018-07-11T20:37:11.663Z,78.00
2018-07-11T20:39:42.326Z,79.30
2018-07-11T20:42:13.780Z,79.20
2018-07-11T20:44:44.219Z,82.30
2018-07-11T20:47:14.600Z,83.80
2018-07-11T20:52:14.824Z,86.60
2018-07-11T20:54:45.256Z,87.20
2018-07-11T20:57:15.767Z,88.60
2018-07-11T21:00:02.876Z,90.20
2018-07-11T21:02:49.916Z,90.70
2018-07-11T21:07:48.181Z,91.40
2018-07-11T21:10:44.123Z,92.30
2018-07-11T21:16:45.448Z,92.80
2018-07-11T21:19:15.850Z,93.70
2018-07-11T21:21:46.844Z,95.70
2018-07-11T21:24:17.459Z,96.10
2018-07-11T21:26:47.949Z,96.70
2018-07-11T21:29:18.936Z,97.70
2018-07-11T21:31:49.752Z,98.70
2018-07-11T21:37:27.042Z,99.70
2018-07-11T21:39:58.140Z,99.90
2018-07-11T21:42:28.787Z,99.90
2018-07-11T21:45:00.076Z,99.90
2018-07-11T21:50:37.791Z,99.90
2018-07-11T21:53:08.873Z,99.90
2018-07-11T21:55:45.153Z,99.90
2018-07-11T21:58:16.458Z,99.90
2018-07-11T22:00:47.794Z,99.90
2018-07-11T22:03:18.787Z,99.90
2018-07-11T22:05:49.848Z,99.90
2018-07-11T22:08:20.732Z,99.90
2018-07-11T22:10:51.739Z,99.90
2018-07-11T22:13:22.753Z,99.90
2018-07-11T22:16:00.273Z,99.90
2018-07-11T22:18:44.547Z,99.90
2018-07-11T22:21:13.807Z,99.90
2018-07-11T22:23:41.915Z,99.90
2018-07-11T22:26:09.945Z,99.90
2018-07-11T22:28:38.092Z,99.90
2018-07-11T22:31:06.392Z,99.90
2018-07-11T22:33:34.619Z,99.90
2018-07-11T22:36:02.725Z,99.90
2018-07-11T22:38:30.748Z,99.90
2018-07-11T22:41:18.524Z,99.90
2018-07-11T22:43:46.664Z,99.90
2018-07-11T22:46:14.868Z,99.90
2018-07-11T22:49:13.333Z,99.90
2018-07-11T22:51:41.445Z,99.90
2018-07-11T22:54:09.680Z,99.90
2018-07-11T22:56:38.512Z,99.90
2018-07-11T22:59:07.031Z,99.90
2018-07-11T23:01:35.489Z,99.90
2018-07-11T23:04:04.128Z,99.90
2018-07-11T23:06:32.459Z,99.90
2018-07-11T23:09:00.610Z,99.90
2018-07-11T23:11:40.018Z,99.90
2018-07-11T23:14:08.508Z,99.90
2018-07-11T23:16:36.734Z,99.90
2018-07-11T23:19:05.121Z,99.90
2018-07-11T23:21:35.567Z,99.90
2018-07-11T23:24:05.147Z,99.90
2018-07-11T23:26:33.575Z,99.90
2018-07-11T23:29:02.288Z,99.90
2018-07-11T23:31:30.794Z,99.90
2018-07-11T23:33:59.258Z,99.90
2018-07-11T23:36:27.683Z,99.90
2018-07-11T23:38:56.244Z,99.90
2018-07-11T23:41:29.835Z,99.90
2018-07-11T23:43:58.398Z,99.90
2018-07-11T23:46:26.852Z,99.90
2018-07-11T23:49:08.207Z,99.90
2018-07-11T23:51:36.716Z,99.90
2018-07-11T23:54:04.910Z,99.90
2018-07-11T23:56:33.278Z,99.90
